Dane, WI (53529)

3:47 PM CST on November 24, 2014 (GMT -0600)
Prairie Park | Change Station
CLOSE
Current Station
Personal Weather Station
Location: Waunakee, WI
Elevation: 928 ft
Nearby Weather Stations
Active Advisory: Winter Weather Advisory

Elev 928 ft 43.20 °N, 89.45 °W | Updated 27 minutes ago

Snow
Snow
28.1 °F
Feels Like 24 °F
N
3.4
Wind Variable Wind from WSW
Gusts 3.4 mph

Today
High -- | Low -- °F
--% Chance of Precip.
Yesterday
High -- | Low -- °F
Precip. -- in
7:02 AM 4:27 PM
Waxing Crescent, 7% visible
Pressure 29.44 in
Visibility 1.2 miles
Clouds Overcast 900 ft
Windchill 24 °F
Dew Point 26 °F
Humidity 91%
Rainfall 0.05 in
Snow Depth Not available.
UV 0 out of 12
Pollen .10 out of 12
Air Quality Not available.
Flu Activity Not available.
METAR KC29 242135Z AUTO 26015G19KT 1 1/4SM OVC009 M01/M02 A2944 RMK AO1 T10151023

More Conditions Fewer Conditions

Pressure 29.44 in
Visibility 1.2 miles
Clouds Overcast 900 ft
Windchill 24 °F
Dew Point 26 °F
Humidity 91%
Rainfall 0.05 in
Snow Depth Not available.
UV 0 out of 12
Pollen .10 out of 12
Air Quality Not available.
Flu Activity Not available.
METAR KC29 242135Z AUTO 26015G19KT 1 1/4SM OVC009 M01/M02 A2944 RMK AO1 T10151023

More Conditions Fewer Conditions

10-Day Weather Forecast

Almanac

Astronomy

Nov. 24, 2014 Rise Set
Actual Time
Civil Twilight
Nautical Twilight
Astronomical Twilight
Moon
Length of Visible Light
Length of Day
Tomorrow will be .
, % of the Moon is Illuminated

Today's Extremes

State Highs State Lows

Community

WunderPhotos

Upload Photos

1,773,415 photos uploaded!

WunderBlogs® & News

Nearby

Air Quality

  Air Quality AQ Index Pollutant
Not available.

Snow Depth

Station Depth Elevation

Earthquake Activity

City Distance Mag. Time & Date
Minimum magnitude displayed is 2.5.

Coastal Water Temperatures

Place Temperature

Nearby Weather Stations